sensor_id;sensor_type;location;lat;lon;timestamp;pressure;altitude;pressure_sealevel;temperature;humidity
64886;BME280;51514;52.206;5.114;2024-03-22T00:01:10;102138.03;;;13.36;88.78
64886;BME280;51514;52.206;5.114;2024-03-22T00:03:36;102131.75;;;13.35;89.34
64886;BME280;51514;52.206;5.114;2024-03-22T00:06:01;102130.63;;;13.38;89.39
64886;BME280;51514;52.206;5.114;2024-03-22T00:08:27;102125.19;;;13.38;89.42
64886;BME280;51514;52.206;5.114;2024-03-22T00:10:52;102120.63;;;13.38;89.47
64886;BME280;51514;52.206;5.114;2024-03-22T00:13:17;102113.50;;;13.37;89.67
64886;BME280;51514;52.206;5.114;2024-03-22T00:15:43;102115.78;;;13.32;90.22
64886;BME280;51514;52.206;5.114;2024-03-22T00:18:09;102103.09;;;13.33;89.77
64886;BME280;51514;52.206;5.114;2024-03-22T00:20:35;102099.53;;;13.32;89.79
64886;BME280;51514;52.206;5.114;2024-03-22T00:23:00;102094.09;;;13.32;89.93
64886;BME280;51514;52.206;5.114;2024-03-22T00:25:25;102093.09;;;13.33;90.00
64886;BME280;51514;52.206;5.114;2024-03-22T00:27:51;102097.53;;;13.34;89.90
64886;BME280;51514;52.206;5.114;2024-03-22T00:30:16;102092.81;;;13.36;89.82
64886;BME280;51514;52.206;5.114;2024-03-22T00:32:42;102077.56;;;13.35;90.23
64886;BME280;51514;52.206;5.114;2024-03-22T00:35:09;102068.59;;;13.35;90.27
64886;BME280;51514;52.206;5.114;2024-03-22T00:37:35;102067.59;;;13.36;89.98
64886;BME280;51514;52.206;5.114;2024-03-22T00:40:00;102052.19;;;13.36;90.06
64886;BME280;51514;52.206;5.114;2024-03-22T00:42:25;102052.19;;;13.36;89.95
64886;BME280;51514;52.206;5.114;2024-03-22T00:44:51;102043.34;;;13.34;89.75
64886;BME280;51514;52.206;5.114;2024-03-22T00:47:16;102034.50;;;13.32;89.75
64886;BME280;51514;52.206;5.114;2024-03-22T00:49:42;102042.09;;;13.29;89.70
64886;BME280;51514;52.206;5.114;2024-03-22T00:52:07;102039.69;;;13.26;90.04
64886;BME280;51514;52.206;5.114;2024-03-22T00:54:33;102043.38;;;13.25;89.94
64886;BME280;51514;52.206;5.114;2024-03-22T00:57:01;102044.53;;;13.22;89.93
64886;BME280;51514;52.206;5.114;2024-03-22T00:59:27;102040.81;;;13.23;89.89
64886;BME280;51514;52.206;5.114;2024-03-22T01:01:52;102040.97;;;13.22;89.55
64886;BME280;51514;52.206;5.114;2024-03-22T01:04:17;102042.13;;;13.19;89.24
64886;BME280;51514;52.206;5.114;2024-03-22T01:06:42;102039.44;;;13.19;89.68
64886;BME280;51514;52.206;5.114;2024-03-22T01:09:08;102051.06;;;13.20;89.73
64886;BME280;51514;52.206;5.114;2024-03-22T01:11:33;102044.84;;;13.19;89.52
64886;BME280;51514;52.206;5.114;2024-03-22T01:13:58;102039.44;;;13.19;89.50
64886;BME280;51514;52.206;5.114;2024-03-22T01:16:24;102034.81;;;13.20;89.58
64886;BME280;51514;52.206;5.114;2024-03-22T01:18:49;102045.84;;;13.18;89.65
64886;BME280;51514;52.206;5.114;2024-03-22T01:21:14;102037.84;;;13.17;89.23
64886;BME280;51514;52.206;5.114;2024-03-22T01:23:40;102037.72;;;13.18;89.00
64886;BME280;51514;52.206;5.114;2024-03-22T01:26:05;102032.13;;;13.20;89.34
64886;BME280;51514;52.206;5.114;2024-03-22T01:28:30;102036.00;;;13.17;89.12
64886;BME280;51514;52.206;5.114;2024-03-22T01:30:56;102033.56;;;13.14;89.30
64886;BME280;51514;52.206;5.114;2024-03-22T01:33:21;102033.81;;;13.11;89.38
64886;BME280;51514;52.206;5.114;2024-03-22T01:35:46;102032.69;;;13.13;89.17
64886;BME280;51514;52.206;5.114;2024-03-22T01:38:11;102023.59;;;13.14;88.67
64886;BME280;51514;52.206;5.114;2024-03-22T01:40:37;102031.59;;;13.16;88.73
64886;BME280;51514;52.206;5.114;2024-03-22T01:43:02;102023.31;;;13.18;88.55
64886;BME280;51514;52.206;5.114;2024-03-22T01:45:31;102022.47;;;13.17;88.35
64886;BME280;51514;52.206;5.114;2024-03-22T01:47:57;102023.16;;;13.19;88.32
64886;BME280;51514;52.206;5.114;2024-03-22T01:50:23;102028.59;;;13.19;88.19
64886;BME280;51514;52.206;5.114;2024-03-22T01:52:48;102019.16;;;13.23;88.20
64886;BME280;51514;52.206;5.114;2024-03-22T01:55:14;102024.56;;;13.23;88.07
64886;BME280;51514;52.206;5.114;2024-03-22T01:57:40;102023.84;;;13.21;88.27
64886;BME280;51514;52.206;5.114;2024-03-22T02:00:06;102012.34;;;13.19;88.03
64886;BME280;51514;52.206;5.114;2024-03-22T02:02:34;102012.34;;;13.19;88.04
64886;BME280;51514;52.206;5.114;2024-03-22T02:04:59;102019.75;;;13.17;87.85
64886;BME280;51514;52.206;5.114;2024-03-22T02:07:24;102018.19;;;13.14;87.71
64886;BME280;51514;52.206;5.114;2024-03-22T02:09:52;102014.00;;;13.10;88.03
64886;BME280;51514;52.206;5.114;2024-03-22T02:12:17;102012.16;;;13.11;87.75
64886;BME280;51514;52.206;5.114;2024-03-22T02:14:43;102013.03;;;13.11;87.80
64886;BME280;51514;52.206;5.114;2024-03-22T02:17:09;101995.91;;;13.11;87.65
64886;BME280;51514;52.206;5.114;2024-03-22T02:19:34;102001.19;;;13.12;87.52
64886;BME280;51514;52.206;5.114;2024-03-22T02:21:59;101994.91;;;13.12;87.50
64886;BME280;51514;52.206;5.114;2024-03-22T02:24:25;101993.34;;;13.09;87.44
64886;BME280;51514;52.206;5.114;2024-03-22T02:26:50;101986.09;;;13.10;87.50
64886;BME280;51514;52.206;5.114;2024-03-22T02:29:15;101978.13;;;13.08;87.66
64886;BME280;51514;52.206;5.114;2024-03-22T02:31:40;101980.41;;;13.03;87.72
64886;BME280;51514;52.206;5.114;2024-03-22T02:34:06;101979.84;;;13.00;87.82
64886;BME280;51514;52.206;5.114;2024-03-22T02:36:31;101978.44;;;12.96;88.03
64886;BME280;51514;52.206;5.114;2024-03-22T02:38:57;101973.03;;;12.96;87.94
64886;BME280;51514;52.206;5.114;2024-03-22T02:41:22;101973.91;;;12.96;88.07
64886;BME280;51514;52.206;5.114;2024-03-22T02:43:47;101959.19;;;12.99;88.12
64886;BME280;51514;52.206;5.114;2024-03-22T02:46:12;101946.69;;;12.88;88.41
64886;BME280;51514;52.206;5.114;2024-03-22T02:48:38;101939.88;;;12.84;88.25
64886;BME280;51514;52.206;5.114;2024-03-22T02:51:03;101929.47;;;12.79;88.25
64886;BME280;51514;52.206;5.114;2024-03-22T02:53:32;101923.66;;;12.74;88.60
64886;BME280;51514;52.206;5.114;2024-03-22T02:56:00;101926.22;;;12.76;88.26
64886;BME280;51514;52.206;5.114;2024-03-22T02:58:26;101922.81;;;12.74;88.97
64886;BME280;51514;52.206;5.114;2024-03-22T03:00:51;101912.41;;;12.69;88.73
64886;BME280;51514;52.206;5.114;2024-03-22T03:03:16;101914.41;;;12.67;88.72
64886;BME280;51514;52.206;5.114;2024-03-22T03:05:42;101894.78;;;12.65;89.18
64886;BME280;51514;52.206;5.114;2024-03-22T03:08:08;101908.44;;;12.64;89.17
64886;BME280;51514;52.206;5.114;2024-03-22T03:10:33;101908.44;;;12.64;89.06
64886;BME280;51514;52.206;5.114;2024-03-22T03:13:02;101901.47;;;12.61;89.41
64886;BME280;51514;52.206;5.114;2024-03-22T03:15:27;101898.75;;;12.61;89.46
64886;BME280;51514;52.206;5.114;2024-03-22T03:17:53;101891.34;;;12.63;89.70
64886;BME280;51514;52.206;5.114;2024-03-22T03:20:18;101887.81;;;12.63;89.55
64886;BME280;51514;52.206;5.114;2024-03-22T03:22:43;101881.69;;;12.61;89.69
64886;BME280;51514;52.206;5.114;2024-03-22T03:25:09;101881.09;;;12.57;89.77
64886;BME280;51514;52.206;5.114;2024-03-22T03:27:34;101866.56;;;12.58;89.51
64886;BME280;51514;52.206;5.114;2024-03-22T03:30:00;101857.75;;;12.56;89.83
64886;BME280;51514;52.206;5.114;2024-03-22T03:32:26;101863.63;;;12.52;89.77
64886;BME280;51514;52.206;5.114;2024-03-22T03:34:52;101856.66;;;12.49;90.07
64886;BME280;51514;52.206;5.114;2024-03-22T03:37:17;101859.34;;;12.49;89.86
64886;BME280;51514;52.206;5.114;2024-03-22T03:39:43;101859.50;;;12.48;89.95
64886;BME280;51514;52.206;5.114;2024-03-22T03:42:08;101855.94;;;12.47;90.04
64886;BME280;51514;52.206;5.114;2024-03-22T03:44:33;101862.06;;;12.49;90.22
64886;BME280;51514;52.206;5.114;2024-03-22T03:47:01;101856.66;;;12.49;90.26
64886;BME280;51514;52.206;5.114;2024-03-22T03:49:26;101862.06;;;12.49;90.32
64886;BME280;51514;52.206;5.114;2024-03-22T03:51:52;101858.34;;;12.50;90.01
64886;BME280;51514;52.206;5.114;2024-03-22T03:54:17;101861.06;;;12.50;89.88
64886;BME280;51514;52.206;5.114;2024-03-22T03:56:42;101861.19;;;12.49;90.08
64886;BME280;51514;52.206;5.114;2024-03-22T03:59:08;101857.50;;;12.50;89.88
64886;BME280;51514;52.206;5.114;2024-03-22T04:01:33;101854.94;;;12.48;90.10
64886;BME280;51514;52.206;5.114;2024-03-22T04:03:58;101852.22;;;12.48;90.04
64886;BME280;51514;52.206;5.114;2024-03-22T04:06:24;101858.34;;;12.50;90.12
64886;BME280;51514;52.206;5.114;2024-03-22T04:08:52;101846.97;;;12.47;90.25
64886;BME280;51514;52.206;5.114;2024-03-22T04:11:17;101854.09;;;12.48;89.74
64886;BME280;51514;52.206;5.114;2024-03-22T04:13:43;101841.41;;;12.48;89.60
64886;BME280;51514;52.206;5.114;2024-03-22T04:16:08;101835.44;;;12.44;89.63
64886;BME280;51514;52.206;5.114;2024-03-22T04:18:33;101843.72;;;12.43;89.59
64886;BME280;51514;52.206;5.114;2024-03-22T04:20:59;101847.69;;;12.39;89.84
64886;BME280;51514;52.206;5.114;2024-03-22T04:23:25;101848.41;;;12.41;90.03
64886;BME280;51514;52.206;5.114;2024-03-22T04:25:59;101851.25;;;12.39;90.08
64886;BME280;51514;52.206;5.114;2024-03-22T04:28:25;101854.69;;;12.41;89.80
64886;BME280;51514;52.206;5.114;2024-03-22T04:30:59;101842.44;;;12.37;89.93
64886;BME280;51514;52.206;5.114;2024-03-22T04:33:25;101851.53;;;12.36;89.80
64886;BME280;51514;52.206;5.114;2024-03-22T04:35:51;101851.53;;;12.36;89.83
64886;BME280;51514;52.206;5.114;2024-03-22T04:38:16;101850.69;;;12.36;90.26
64886;BME280;51514;52.206;5.114;2024-03-22T04:40:42;101841.88;;;12.34;90.23
64886;BME280;51514;52.206;5.114;2024-03-22T04:43:08;101842.56;;;12.36;89.99
64886;BME280;51514;52.206;5.114;2024-03-22T04:45:33;101846.84;;;12.38;89.62
64886;BME280;51514;52.206;5.114;2024-03-22T04:48:01;101854.09;;;12.38;89.64
64886;BME280;51514;52.206;5.114;2024-03-22T04:50:26;101846.13;;;12.36;90.12
64886;BME280;51514;52.206;5.114;2024-03-22T04:52:51;101847.84;;;12.37;90.10
64886;BME280;51514;52.206;5.114;2024-03-22T04:55:17;101843.28;;;12.38;89.83
64886;BME280;51514;52.206;5.114;2024-03-22T04:57:42;101845.00;;;12.39;90.03
64886;BME280;51514;52.206;5.114;2024-03-22T05:00:08;101851.41;;;12.38;89.66
64886;BME280;51514;52.206;5.114;2024-03-22T05:02:34;101848.69;;;12.38;89.83
64886;BME280;51514;52.206;5.114;2024-03-22T05:04:59;101854.09;;;12.38;89.56
64886;BME280;51514;52.206;5.114;2024-03-22T05:07:25;101852.41;;;12.37;89.19
64886;BME280;51514;52.206;5.114;2024-03-22T05:09:50;101851.81;;;12.33;89.52
64886;BME280;51514;52.206;5.114;2024-03-22T05:12:15;101843.72;;;12.33;89.35
64886;BME280;51514;52.206;5.114;2024-03-22T05:14:40;101844.75;;;12.32;89.44
64886;BME280;51514;52.206;5.114;2024-03-22T05:17:06;101845.59;;;12.33;88.90
64886;BME280;51514;52.206;5.114;2024-03-22T05:19:31;101843.16;;;12.30;89.02
64886;BME280;51514;52.206;5.114;2024-03-22T05:21:56;101836.06;;;12.29;89.04
64886;BME280;51514;52.206;5.114;2024-03-22T05:24:22;101839.03;;;12.26;89.21
64886;BME280;51514;52.206;5.114;2024-03-22T05:26:47;101832.78;;;12.25;88.88
64886;BME280;51514;52.206;5.114;2024-03-22T05:29:12;101836.78;;;12.21;88.63
64886;BME280;51514;52.206;5.114;2024-03-22T05:31:47;101829.97;;;12.17;89.06
64886;BME280;51514;52.206;5.114;2024-03-22T05:34:19;101821.97;;;12.16;88.95
64886;BME280;51514;52.206;5.114;2024-03-22T05:36:45;101823.13;;;12.13;88.98
64886;BME280;51514;52.206;5.114;2024-03-22T05:39:11;101820.28;;;12.15;88.77
64886;BME280;51514;52.206;5.114;2024-03-22T05:41:37;101818.56;;;12.14;89.18
64886;BME280;51514;52.206;5.114;2024-03-22T05:44:02;101812.63;;;12.10;88.92
64886;BME280;51514;52.206;5.114;2024-03-22T05:46:28;101808.50;;;12.06;89.37
64886;BME280;51514;52.206;5.114;2024-03-22T05:48:54;101815.75;;;12.05;89.58
64886;BME280;51514;52.206;5.114;2024-03-22T05:51:19;101806.22;;;12.01;89.64
64886;BME280;51514;52.206;5.114;2024-03-22T05:53:45;101798.94;;;12.02;89.81
64886;BME280;51514;52.206;5.114;2024-03-22T05:56:10;101804.66;;;11.99;89.22
64886;BME280;51514;52.206;5.114;2024-03-22T05:58:36;101804.81;;;11.97;89.62
64886;BME280;51514;52.206;5.114;2024-03-22T06:01:02;101800.81;;;12.01;89.69
64886;BME280;51514;52.206;5.114;2024-03-22T06:03:28;101789.31;;;11.99;89.74
64886;BME280;51514;52.206;5.114;2024-03-22T06:05:53;101790.69;;;12.03;89.62
64886;BME280;51514;52.206;5.114;2024-03-22T06:08:21;101797.81;;;12.04;90.23
64886;BME280;51514;52.206;5.114;2024-03-22T06:10:47;101792.84;;;12.10;89.50
64886;BME280;51514;52.206;5.114;2024-03-22T06:13:12;101786.25;;;12.12;89.68
64886;BME280;51514;52.206;5.114;2024-03-22T06:15:38;101789.81;;;12.13;89.50
64886;BME280;51514;52.206;5.114;2024-03-22T06:18:03;101784.72;;;12.19;89.54
64886;BME280;51514;52.206;5.114;2024-03-22T06:20:28;101789.66;;;12.24;89.30
64886;BME280;51514;52.206;5.114;2024-03-22T06:22:57;101797.47;;;12.27;88.91
64886;BME280;51514;52.206;5.114;2024-03-22T06:25:22;101782.69;;;12.31;88.56
64886;BME280;51514;52.206;5.114;2024-03-22T06:27:48;101782.06;;;12.37;88.47
64886;BME280;51514;52.206;5.114;2024-03-22T06:30:13;101780.09;;;12.39;88.33
64886;BME280;51514;52.206;5.114;2024-03-22T06:32:38;101784.34;;;12.41;87.72
64886;BME280;51514;52.206;5.114;2024-03-22T06:35:04;101784.22;;;12.43;87.46
64886;BME280;51514;52.206;5.114;2024-03-22T06:37:30;101790.31;;;12.45;87.28
64886;BME280;51514;52.206;5.114;2024-03-22T06:39:56;101783.91;;;12.46;86.94
64886;BME280;51514;52.206;5.114;2024-03-22T06:42:21;101790.16;;;12.47;86.81
64886;BME280;51514;52.206;5.114;2024-03-22T06:44:46;101790.72;;;12.50;86.35
64886;BME280;51514;52.206;5.114;2024-03-22T06:47:12;101787.31;;;12.48;86.34
64886;BME280;51514;52.206;5.114;2024-03-22T06:49:37;101786.31;;;12.49;86.33
64886;BME280;51514;52.206;5.114;2024-03-22T06:52:02;101783.31;;;12.52;86.08
64886;BME280;51514;52.206;5.114;2024-03-22T06:54:28;101784.84;;;12.55;86.08
64886;BME280;51514;52.206;5.114;2024-03-22T06:56:53;101786.41;;;12.57;85.97
64886;BME280;51514;52.206;5.114;2024-03-22T06:59:18;101792.81;;;12.56;85.73
64886;BME280;51514;52.206;5.114;2024-03-22T07:01:44;101790.81;;;12.58;86.10
64886;BME280;51514;52.206;5.114;2024-03-22T07:04:09;101788.84;;;12.60;86.19
64886;BME280;51514;52.206;5.114;2024-03-22T07:06:34;101792.53;;;12.59;86.04
64886;BME280;51514;52.206;5.114;2024-03-22T07:09:00;101783.00;;;12.55;86.41
64886;BME280;51514;52.206;5.114;2024-03-22T07:11:25;101771.19;;;12.56;86.56
64886;BME280;51514;52.206;5.114;2024-03-22T07:13:50;101782.72;;;12.58;86.29
64886;BME280;51514;52.206;5.114;2024-03-22T07:16:18;101787.13;;;12.59;86.21
64886;BME280;51514;52.206;5.114;2024-03-22T07:18:44;101781.16;;;12.56;86.73
64886;BME280;51514;52.206;5.114;2024-03-22T07:21:09;101796.53;;;12.55;86.71
64886;BME280;51514;52.206;5.114;2024-03-22T07:23:35;101798.56;;;12.53;86.43
64886;BME280;51514;52.206;5.114;2024-03-22T07:26:00;101778.91;;;12.51;86.17
64886;BME280;51514;52.206;5.114;2024-03-22T07:28:25;101784.88;;;12.45;86.86
64886;BME280;51514;52.206;5.114;2024-03-22T07:30:50;101786.75;;;12.44;86.89
64886;BME280;51514;52.206;5.114;2024-03-22T07:33:19;101785.75;;;12.46;86.80
64886;BME280;51514;52.206;5.114;2024-03-22T07:35:44;101792.00;;;12.46;86.86
64886;BME280;51514;52.206;5.114;2024-03-22T07:38:10;101790.31;;;12.45;87.33
64886;BME280;51514;52.206;5.114;2024-03-22T07:40:35;101786.91;;;12.43;87.56
64886;BME280;51514;52.206;5.114;2024-03-22T07:43:01;101793.47;;;12.40;88.24
64886;BME280;51514;52.206;5.114;2024-03-22T07:45:33;101781.78;;;12.40;88.33
64886;BME280;51514;52.206;5.114;2024-03-22T07:48:01;101793.47;;;12.40;88.56
64886;BME280;51514;52.206;5.114;2024-03-22T07:50:27;101784.63;;;12.38;88.89
64886;BME280;51514;52.206;5.114;2024-03-22T07:52:53;101783.94;;;12.36;89.05
64886;BME280;51514;52.206;5.114;2024-03-22T07:55:18;101782.06;;;12.37;88.75
64886;BME280;51514;52.206;5.114;2024-03-22T07:57:44;101785.06;;;12.34;89.38
64886;BME280;51514;52.206;5.114;2024-03-22T08:00:09;101780.69;;;12.33;89.66
64886;BME280;51514;52.206;5.114;2024-03-22T08:02:35;101786.38;;;12.30;89.97
64886;BME280;51514;52.206;5.114;2024-03-22T08:05:00;101783.53;;;12.31;89.95
64886;BME280;51514;52.206;5.114;2024-03-22T08:07:27;101788.34;;;12.37;90.34
64886;BME280;51514;52.206;5.114;2024-03-22T08:09:52;101782.78;;;12.39;90.43
64886;BME280;51514;52.206;5.114;2024-03-22T08:12:18;101775.78;;;12.46;90.07
64886;BME280;51514;52.206;5.114;2024-03-22T08:14:44;101778.06;;;12.51;89.73
64886;BME280;51514;52.206;5.114;2024-03-22T08:17:10;101779.44;;;12.55;89.56
64886;BME280;51514;52.206;5.114;2024-03-22T08:19:36;101778.63;;;12.54;89.57
64886;BME280;51514;52.206;5.114;2024-03-22T08:22:02;101783.41;;;12.60;89.48
64886;BME280;51514;52.206;5.114;2024-03-22T08:24:27;101790.81;;;12.58;89.29
64886;BME280;51514;52.206;5.114;2024-03-22T08:26:53;101786.28;;;12.59;89.35
64886;BME280;51514;52.206;5.114;2024-03-22T08:29:18;101792.25;;;12.62;89.34
64886;BME280;51514;52.206;5.114;2024-03-22T08:31:44;101785.69;;;12.65;89.30
64886;BME280;51514;52.206;5.114;2024-03-22T08:34:09;101777.81;;;12.71;89.31
64886;BME280;51514;52.206;5.114;2024-03-22T08:36:35;101776.53;;;12.75;89.62
64886;BME280;51514;52.206;5.114;2024-03-22T08:39:00;101778.91;;;12.78;89.81
64886;BME280;51514;52.206;5.114;2024-03-22T08:41:26;101777.06;;;12.79;90.19
64886;BME280;51514;52.206;5.114;2024-03-22T08:43:51;101779.47;;;12.82;90.38
64886;BME280;51514;52.206;5.114;2024-03-22T08:46:16;101781.19;;;12.83;90.61
64886;BME280;51514;52.206;5.114;2024-03-22T08:48:42;101773.63;;;12.87;90.42
64886;BME280;51514;52.206;5.114;2024-03-22T08:51:07;101771.91;;;12.86;90.60
64886;BME280;51514;52.206;5.114;2024-03-22T08:53:32;101773.22;;;12.82;91.05
64886;BME280;51514;52.206;5.114;2024-03-22T08:55:58;101775.06;;;12.81;90.98
64886;BME280;51514;52.206;5.114;2024-03-22T08:58:23;101774.19;;;12.80;91.14
64886;BME280;51514;52.206;5.114;2024-03-22T09:00:49;101778.63;;;12.82;91.48
64886;BME280;51514;52.206;5.114;2024-03-22T09:03:14;101775.91;;;12.82;91.82
64886;BME280;51514;52.206;5.114;2024-03-22T09:05:40;101770.50;;;12.82;91.57
64886;BME280;51514;52.206;5.114;2024-03-22T09:08:06;101773.91;;;12.84;91.63
64886;BME280;51514;52.206;5.114;2024-03-22T09:10:31;101776.06;;;12.80;91.98
64886;BME280;51514;52.206;5.114;2024-03-22T09:12:57;101767.78;;;12.82;92.02
64886;BME280;51514;52.206;5.114;2024-03-22T09:15:22;101769.50;;;12.83;92.19
64886;BME280;51514;52.206;5.114;2024-03-22T09:17:48;101773.91;;;12.84;92.40
64886;BME280;51514;52.206;5.114;2024-03-22T09:20:13;101774.63;;;12.86;92.00
64886;BME280;51514;52.206;5.114;2024-03-22T09:22:39;101773.75;;;12.85;92.43
64886;BME280;51514;52.206;5.114;2024-03-22T09:25:05;101767.66;;;12.83;92.33
64886;BME280;51514;52.206;5.114;2024-03-22T09:27:31;101773.06;;;12.83;92.60
64886;BME280;51514;52.206;5.114;2024-03-22T09:29:57;101772.22;;;12.83;92.72
64886;BME280;51514;52.206;5.114;2024-03-22T09:32:22;101765.94;;;12.82;92.62
64886;BME280;51514;52.206;5.114;2024-03-22T09:34:48;101768.50;;;12.84;92.52
64886;BME280;51514;52.206;5.114;2024-03-22T09:37:15;101762.53;;;12.80;93.06
64886;BME280;51514;52.206;5.114;2024-03-22T09:39:40;101757.97;;;12.80;93.14
64886;BME280;51514;52.206;5.114;2024-03-22T09:42:06;101759.81;;;12.80;93.46
64886;BME280;51514;52.206;5.114;2024-03-22T09:44:32;101767.94;;;12.80;93.77
64886;BME280;51514;52.206;5.114;2024-03-22T09:46:59;101759.38;;;12.85;93.29
64886;BME280;51514;52.206;5.114;2024-03-22T09:49:25;101764.94;;;12.83;93.53
64886;BME280;51514;52.206;5.114;2024-03-22T09:51:51;101761.38;;;12.83;93.45
64886;BME280;51514;52.206;5.114;2024-03-22T09:54:17;101764.22;;;12.81;93.75
64886;BME280;51514;52.206;5.114;2024-03-22T09:56:43;101755.66;;;12.86;93.88
64886;BME280;51514;52.206;5.114;2024-03-22T09:59:11;101746.22;;;12.90;94.10
64886;BME280;51514;52.206;5.114;2024-03-22T10:01:36;101750.50;;;12.92;94.09
64886;BME280;51514;52.206;5.114;2024-03-22T10:04:02;101750.03;;;12.97;94.05
64886;BME280;51514;52.206;5.114;2024-03-22T10:06:29;101749.03;;;12.98;93.89
64886;BME280;51514;52.206;5.114;2024-03-22T10:08:58;101750.72;;;12.99;94.03
64886;BME280;51514;52.206;5.114;2024-03-22T10:11:25;101747.34;;;12.97;94.14
64886;BME280;51514;52.206;5.114;2024-03-22T10:13:50;101747.72;;;13.02;94.20
64886;BME280;51514;52.206;5.114;2024-03-22T10:16:16;101746.56;;;13.04;93.94
64886;BME280;51514;52.206;5.114;2024-03-22T10:18:41;101748.78;;;13.09;94.27
64886;BME280;51514;52.206;5.114;2024-03-22T10:21:07;101750.94;;;13.15;94.32
64886;BME280;51514;52.206;5.114;2024-03-22T10:23:32;101746.94;;;13.19;94.40
64886;BME280;51514;52.206;5.114;2024-03-22T10:26:01;101753.72;;;13.23;94.17
64886;BME280;51514;52.206;5.114;2024-03-22T10:28:27;101751.56;;;13.27;94.00
64886;BME280;51514;52.206;5.114;2024-03-22T10:30:53;101753.28;;;13.28;94.15
64886;BME280;51514;52.206;5.114;2024-03-22T10:33:19;101758.56;;;13.29;93.69
64886;BME280;51514;52.206;5.114;2024-03-22T10:35:46;101753.13;;;13.29;93.30
64886;BME280;51514;52.206;5.114;2024-03-22T10:38:16;101748.00;;;13.26;93.43
64886;BME280;51514;52.206;5.114;2024-03-22T10:40:46;101746.31;;;13.25;93.12
64886;BME280;51514;52.206;5.114;2024-03-22T10:43:15;101750.31;;;13.21;92.95
64886;BME280;51514;52.206;5.114;2024-03-22T10:45:41;101754.03;;;13.20;93.08
64886;BME280;51514;52.206;5.114;2024-03-22T10:48:11;101755.06;;;13.19;93.53
64886;BME280;51514;52.206;5.114;2024-03-22T10:50:41;101746.31;;;13.25;93.47
64886;BME280;51514;52.206;5.114;2024-03-22T10:53:21;101756.00;;;13.28;93.56
64886;BME280;51514;52.206;5.114;2024-03-22T10:55:50;101739.75;;;13.28;93.56
64886;BME280;51514;52.206;5.114;2024-03-22T10:58:17;101747.00;;;13.27;93.24
64886;BME280;51514;52.206;5.114;2024-03-22T11:00:43;101748.72;;;13.28;93.00
64886;BME280;51514;52.206;5.114;2024-03-22T11:03:09;101743.44;;;13.27;93.07
64886;BME280;51514;52.206;5.114;2024-03-22T11:05:34;101747.16;;;13.26;93.23
64886;BME280;51514;52.206;5.114;2024-03-22T11:08:00;101738.34;;;13.24;92.99
64886;BME280;51514;52.206;5.114;2024-03-22T11:10:29;101741.19;;;13.22;93.14
64886;BME280;51514;52.206;5.114;2024-03-22T11:12:55;101737.47;;;13.23;93.41
64886;BME280;51514;52.206;5.114;2024-03-22T11:15:22;101737.47;;;13.23;93.29
64886;BME280;51514;52.206;5.114;2024-03-22T11:17:47;101742.59;;;13.26;93.52
64886;BME280;51514;52.206;5.114;2024-03-22T11:20:12;101733.63;;;13.26;93.50
64886;BME280;51514;52.206;5.114;2024-03-22T11:22:38;101731.75;;;13.26;93.53
64886;BME280;51514;52.206;5.114;2024-03-22T11:25:03;101730.06;;;13.25;93.28
64886;BME280;51514;52.206;5.114;2024-03-22T11:27:29;101730.34;;;13.22;93.32
64886;BME280;51514;52.206;5.114;2024-03-22T11:29:54;101724.09;;;13.22;93.36
64886;BME280;51514;52.206;5.114;2024-03-22T11:32:20;101724.25;;;13.20;93.91
64886;BME280;51514;52.206;5.114;2024-03-22T11:34:46;101723.63;;;13.26;93.80
64886;BME280;51514;52.206;5.114;2024-03-22T11:37:11;101721.63;;;13.28;94.04
64886;BME280;51514;52.206;5.114;2024-03-22T11:39:37;101719.44;;;13.32;93.93
64886;BME280;51514;52.206;5.114;2024-03-22T11:42:06;101716.44;;;13.35;94.05
64886;BME280;51514;52.206;5.114;2024-03-22T11:44:36;101718.69;;;13.39;94.19
64886;BME280;51514;52.206;5.114;2024-03-22T11:47:02;101717.50;;;13.42;93.94
64886;BME280;51514;52.206;5.114;2024-03-22T11:49:28;101715.66;;;13.42;93.75
64886;BME280;51514;52.206;5.114;2024-03-22T11:51:55;101714.78;;;13.42;93.42
64886;BME280;51514;52.206;5.114;2024-03-22T11:54:21;101703.97;;;13.42;93.47
64886;BME280;51514;52.206;5.114;2024-03-22T11:56:47;101709.56;;;13.40;93.43
64886;BME280;51514;52.206;5.114;2024-03-22T11:59:13;101708.00;;;13.38;92.97
64886;BME280;51514;52.206;5.114;2024-03-22T12:01:38;101705.91;;;13.32;92.75
64886;BME280;51514;52.206;5.114;2024-03-22T12:04:04;101705.53;;;13.27;92.54
64886;BME280;51514;52.206;5.114;2024-03-22T12:06:29;101708.69;;;13.22;92.91
64886;BME280;51514;52.206;5.114;2024-03-22T12:08:55;101700.06;;;13.19;93.31
64886;BME280;51514;52.206;5.114;2024-03-22T12:11:20;101700.19;;;13.17;92.92
64886;BME280;51514;52.206;5.114;2024-03-22T12:13:46;101695.78;;;13.16;93.38
64886;BME280;51514;52.206;5.114;2024-03-22T12:16:12;101705.63;;;13.17;93.51
64886;BME280;51514;52.206;5.114;2024-03-22T12:18:37;101703.59;;;13.19;93.57
64886;BME280;51514;52.206;5.114;2024-03-22T12:21:03;101702.44;;;13.22;93.79
64886;BME280;51514;52.206;5.114;2024-03-22T12:23:28;101699.25;;;13.26;93.84
64886;BME280;51514;52.206;5.114;2024-03-22T12:25:53;101694.41;;;13.30;93.94
64886;BME280;51514;52.206;5.114;2024-03-22T12:28:20;101690.13;;;13.27;93.57
64886;BME280;51514;52.206;5.114;2024-03-22T12:30:46;101686.94;;;13.32;93.72
64886;BME280;51514;52.206;5.114;2024-03-22T12:33:12;101682.72;;;13.29;93.61
64886;BME280;51514;52.206;5.114;2024-03-22T12:35:39;101692.13;;;13.25;93.53
64886;BME280;51514;52.206;5.114;2024-03-22T12:38:08;101687.72;;;13.24;93.36
64886;BME280;51514;52.206;5.114;2024-03-22T12:40:36;101681.84;;;13.29;93.81
64886;BME280;51514;52.206;5.114;2024-03-22T12:43:01;101676.50;;;13.37;93.90